createdAt,value
2023-03-28T00:00:28.679Z,2.4
2023-03-28T00:06:20.491Z,2.3
2023-03-28T00:11:41.424Z,2.2
2023-03-28T00:17:17.903Z,2.1
2023-03-28T00:23:08.870Z,2
2023-03-28T00:28:28.439Z,1.9
2023-03-28T00:34:04.876Z,1.8
2023-03-28T00:39:56.826Z,1.7
2023-03-28T00:45:32.783Z,1.5
2023-03-28T00:51:41.768Z,1.4
2023-03-28T00:57:17.836Z,1.3
2023-03-28T01:02:53.822Z,1.3
2023-03-28T01:08:30.974Z,1.3
2023-03-28T01:14:07.490Z,1.3
2023-03-28T01:19:30.157Z,1.3
2023-03-28T01:25:03.115Z,1.2
2023-03-28T01:30:08.113Z,1.2
2023-03-28T01:35:44.094Z,1.1
2023-03-28T01:41:21.404Z,1.1
2023-03-28T01:46:58.168Z,1
2023-03-28T01:52:34.089Z,1
2023-03-28T01:58:17.503Z,1
2023-03-28T02:03:54.271Z,0.9
2023-03-28T02:09:30.053Z,0.9
2023-03-28T02:15:21.618Z,0.9
2023-03-28T02:21:12.856Z,1
2023-03-28T02:26:49.433Z,0.9
2023-03-28T02:32:41.438Z,0.9
2023-03-28T02:38:32.759Z,0.9
2023-03-28T02:44:24.209Z,0.9
2023-03-28T02:50:27.874Z,0.9
2023-03-28T02:55:48.927Z,0.9
2023-03-28T03:01:40.458Z,0.9
2023-03-28T03:07:17.996Z,0.8
2023-03-28T03:12:54.158Z,0.8
2023-03-28T03:18:30.975Z,0.8
2023-03-28T03:24:07.073Z,0.8
2023-03-28T03:29:38.236Z,0.8
2023-03-28T03:35:18.007Z,0.7
2023-03-28T03:40:54.620Z,0.7
2023-03-28T03:46:31.577Z,0.7
2023-03-28T03:51:58.120Z,0.6
2023-03-28T03:57:34.609Z,0.6
2023-03-28T04:02:55.424Z,0.5
2023-03-28T04:08:44.494Z,0.5
2023-03-28T04:14:20.894Z,0.5
2023-03-28T04:20:08.753Z,0.4
2023-03-28T04:26:09.450Z,0.4
2023-03-28T04:31:46.580Z,0.6
2023-03-28T04:37:23.435Z,0.6
2023-03-28T04:42:20.955Z,0.6
2023-03-28T04:47:42.707Z,0.6
2023-03-28T04:53:34.617Z,0.6
2023-03-28T04:59:26.358Z,0.6
2023-03-28T05:05:04.097Z,0.5
2023-03-28T05:10:56.066Z,0.6
2023-03-28T05:16:51.630Z,0.6
2023-03-28T05:22:43.872Z,0.6
2023-03-28T05:28:37.841Z,0.6
2023-03-28T05:34:29.351Z,0.7
2023-03-28T05:40:21.393Z,0.7
2023-03-28T05:46:12.447Z,0.6
2023-03-28T05:52:03.569Z,0.7
2023-03-28T05:57:43.964Z,0.8
2023-03-28T06:03:36.991Z,0.9
2023-03-28T06:09:42.124Z,0.8
2023-03-28T06:15:33.458Z,0.9
2023-03-28T06:21:50.840Z,0.9
2023-03-28T06:27:26.809Z,0.9
2023-03-28T06:33:19.935Z,0.9
2023-03-28T06:39:12.117Z,0.8
2023-03-28T06:45:03.820Z,0.8
2023-03-28T06:50:40.565Z,0.8
2023-03-28T06:56:16.797Z,0.9
2023-03-28T07:02:08.404Z,1
2023-03-28T07:08:03.495Z,1.2
2023-03-28T07:13:39.574Z,1.3
2023-03-28T07:19:32.993Z,1.3
2023-03-28T07:25:33.153Z,1.2
2023-03-28T07:31:43.740Z,1.1
2023-03-28T07:38:07.150Z,1.1
2023-03-28T07:43:27.419Z,1.1
2023-03-28T07:49:03.716Z,1.2
2023-03-28T07:54:54.894Z,1.2
2023-03-28T08:00:57.679Z,1.1
2023-03-28T08:07:04.790Z,1.2
2023-03-28T08:12:55.855Z,1.3
2023-03-28T08:18:54.462Z,1.3
2023-03-28T08:25:01.780Z,1.6
2023-03-28T08:30:37.479Z,1.9
2023-03-28T08:36:30.112Z,1.9
2023-03-28T08:42:24.564Z,1.8
2023-03-28T08:48:00.695Z,1.9
2023-03-28T08:53:54.999Z,2.2
2023-03-28T08:59:48.455Z,2.3
2023-03-28T09:05:58.340Z,2.6
2023-03-28T09:11:51.077Z,2.8
2023-03-28T09:17:26.736Z,2.3
2023-03-28T09:23:41.144Z,2.1
2023-03-28T09:29:34.059Z,1.8
2023-03-28T09:35:11.814Z,1.9
2023-03-28T09:41:15.350Z,2.3
2023-03-28T09:47:17.646Z,2.8
2023-03-28T09:53:20.328Z,3
2023-03-28T09:59:05.788Z,3
2023-03-28T10:04:58.385Z,2.9
2023-03-28T10:10:49.835Z,3.3
2023-03-28T10:16:40.769Z,3.3
2023-03-28T10:22:32.213Z,3.3
2023-03-28T10:28:22.944Z,3.8
2023-03-28T10:33:59.468Z,3.8
2023-03-28T10:39:52.647Z,3.7
2023-03-28T10:45:44.543Z,4.2
2023-03-28T10:51:35.911Z,3.8
2023-03-28T10:57:28.287Z,4.2
2023-03-28T11:03:20.612Z,4
2023-03-28T11:09:31.240Z,4.1
2023-03-28T11:15:38.748Z,4
2023-03-28T11:21:15.340Z,4.4
2023-03-28T11:27:32.005Z,3.9
2023-03-28T11:33:39.243Z,4.4
2023-03-28T11:39:15.267Z,4.4
2023-03-28T11:45:08.056Z,5
2023-03-28T11:51:13.848Z,4.9
2023-03-28T11:57:06.340Z,5.3
2023-03-28T12:03:07.393Z,4.8
2023-03-28T12:09:16.570Z,5.2
2023-03-28T12:15:18.659Z,5.1
2023-03-28T12:21:12.868Z,5.4
2023-03-28T12:27:04.665Z,4.9
2023-03-28T12:32:42.341Z,4.4
2023-03-28T12:38:33.480Z,5.5
2023-03-28T12:44:10.332Z,5.3
2023-03-28T12:50:02.673Z,6.1
2023-03-28T12:55:54.518Z,5.5
2023-03-28T13:01:48.131Z,5.5
2023-03-28T13:07:40.570Z,5.6
2023-03-28T13:13:32.479Z,5.4
2023-03-28T13:19:25.302Z,5.1
2023-03-28T13:25:02.882Z,5.6
2023-03-28T13:30:38.853Z,5.2
2023-03-28T13:36:30.874Z,5.3
2023-03-28T13:42:10.665Z,5.6
2023-03-28T13:47:47.137Z,6.3
2023-03-28T13:53:40.858Z,6.7
2023-03-28T13:59:38.451Z,5.5
2023-03-28T14:05:31.793Z,6.5
2023-03-28T14:11:23.427Z,5.9
2023-03-28T14:17:17.379Z,6.2
2023-03-28T14:23:17.943Z,5.5
2023-03-28T14:28:57.697Z,6
2023-03-28T14:34:59.427Z,5.8
2023-03-28T14:40:50.762Z,5.7
2023-03-28T14:46:42.448Z,5.8
2023-03-28T14:52:36.570Z,4.8
2023-03-28T14:58:27.852Z,5.4
2023-03-28T15:04:20.820Z,5.4
2023-03-28T15:09:58.826Z,5.1
2023-03-28T15:15:52.019Z,5
2023-03-28T15:21:44.227Z,4.9
2023-03-28T15:27:36.063Z,5
2023-03-28T15:33:14.652Z,5.6
2023-03-28T15:39:08.425Z,6.1
2023-03-28T15:44:59.641Z,6.2
2023-03-28T15:50:53.002Z,5.2
2023-03-28T15:57:01.628Z,4.9
2023-03-28T16:02:53.320Z,4.8
2023-03-28T16:08:48.453Z,4.1
2023-03-28T16:14:39.871Z,4.1
2023-03-28T16:20:16.800Z,3
2023-03-28T16:25:52.442Z,2.5
2023-03-28T16:31:29.718Z,2.4
2023-03-28T16:37:22.261Z,2.3
2023-03-28T16:43:13.640Z,2.4
2023-03-28T16:49:05.221Z,2.3
2023-03-28T16:54:56.053Z,2.1
2023-03-28T17:00:17.229Z,1.9
2023-03-28T17:06:12.888Z,1.8
2023-03-28T17:12:04.641Z,1.8
2023-03-28T17:17:56.482Z,1.5
2023-03-28T17:23:17.490Z,1.4
2023-03-28T17:29:25.237Z,1.4
2023-03-28T17:35:18.988Z,1.3
2023-03-28T17:41:11.249Z,1.3
2023-03-28T17:47:03.988Z,1.1
2023-03-28T17:52:43.417Z,1
2023-03-28T17:58:36.035Z,0.9
2023-03-28T18:04:13.845Z,0.8
2023-03-28T18:10:08.283Z,0.7
2023-03-28T18:16:00.471Z,0.6
2023-03-28T18:27:15.368Z,0.5
2023-03-28T18:32:56.312Z,0.5
2023-03-28T18:44:12.721Z,0.4
2023-03-28T18:55:27.039Z,0.4
2023-03-28T19:01:04.637Z,0.3
2023-03-28T19:06:43.833Z,0.3
2023-03-28T19:12:06.017Z,0.3
2023-03-28T19:17:43.119Z,0.2
2023-03-28T19:23:23.286Z,0.1
2023-03-28T19:29:02.091Z,0.1
2023-03-28T19:34:55.309Z,0.1
2023-03-28T19:40:33.344Z,0.2
2023-03-28T19:46:12.716Z,0.2
2023-03-28T19:52:09.419Z,0.2
2023-03-28T19:58:03.103Z,0.2
2023-03-28T20:03:39.748Z,0.1
2023-03-28T20:09:16.414Z,0.3
2023-03-28T20:14:57.015Z,0.3
2023-03-28T20:20:33.467Z,0.2
2023-03-28T20:26:10.293Z,0.2
2023-03-28T20:32:02.080Z,0.1
2023-03-28T20:37:53.931Z,0.2
2023-03-28T20:43:31.791Z,0.1
2023-03-28T20:49:24.109Z,0.1
2023-03-28T20:55:19.282Z,0.2
2023-03-28T21:01:11.484Z,0.3
2023-03-28T21:07:03.598Z,0.4
2023-03-28T21:12:54.724Z,0.4
2023-03-28T21:18:30.917Z,0.6
2023-03-28T21:24:22.226Z,0.5
2023-03-28T21:29:42.701Z,0.6
2023-03-28T21:35:05.179Z,0.6
2023-03-28T21:40:41.682Z,0.5
2023-03-28T21:46:16.697Z,0.5
2023-03-28T21:51:22.859Z,0.3
2023-03-28T21:57:14.474Z,0.3
2023-03-28T22:02:52.973Z,0.4
2023-03-28T22:08:22.716Z,0.4
2023-03-28T22:13:28.496Z,0.2
2023-03-28T22:18:49.567Z,0
2023-03-28T22:24:24.967Z,-0.2
2023-03-28T22:29:30.277Z,-0.3
2023-03-28T22:35:06.275Z,-0.3
2023-03-28T22:40:41.641Z,-0.4
2023-03-28T22:46:02.728Z,-0.3
2023-03-28T22:51:39.889Z,-0.3
2023-03-28T22:57:16.277Z,-0.4
2023-03-28T23:02:53.017Z,-0.4
2023-03-28T23:08:44.882Z,-0.4
2023-03-28T23:14:20.644Z,-0.6
2023-03-28T23:20:13.322Z,-0.6
2023-03-28T23:25:49.808Z,-0.6
2023-03-28T23:31:43.228Z,-0.7
2023-03-28T23:37:35.206Z,-0.8
2023-03-28T23:59:47.220Z,-0.9
